createdAt,value
2019-05-05T00:01:55.492Z,4.80
2019-05-05T00:04:49.818Z,5.53
2019-05-05T00:07:22.859Z,3.20
2019-05-05T00:09:51.898Z,3.83
2019-05-05T00:12:38.403Z,3.47
2019-05-05T00:15:29.692Z,3.10
2019-05-05T00:17:58.581Z,6.47
2019-05-05T00:20:27.752Z,4.08
2019-05-05T00:22:56.557Z,4.35
2019-05-05T00:25:25.338Z,4.87
2019-05-05T00:27:54.613Z,4.50
2019-05-05T00:30:24.942Z,5.30
2019-05-05T00:32:54.856Z,4.20
2019-05-05T00:35:25.237Z,4.37
2019-05-05T00:37:54.485Z,3.73
2019-05-05T00:40:24.848Z,4.50
2019-05-05T00:42:54.694Z,4.33
2019-05-05T00:45:25.290Z,5.43
2019-05-05T00:48:01.022Z,2.57
2019-05-05T00:50:30.200Z,4.47
2019-05-05T00:52:58.985Z,3.60
2019-05-05T00:55:27.717Z,5.90
2019-05-05T00:57:56.731Z,3.10
2019-05-05T01:00:36.854Z,4.83
2019-05-05T01:03:05.853Z,3.70
2019-05-05T01:05:58.265Z,3.30
2019-05-05T01:08:28.944Z,4.43
2019-05-05T01:10:58.461Z,5.28
2019-05-05T01:13:27.630Z,4.77
2019-05-05T01:15:56.760Z,6.23
2019-05-05T01:18:25.760Z,5.77
2019-05-05T01:20:55.212Z,6.00
2019-05-05T01:23:24.464Z,5.25
2019-05-05T01:25:54.423Z,7.63
2019-05-05T01:28:24.924Z,5.45
2019-05-05T01:30:57.184Z,4.40
2019-05-05T01:33:40.461Z,5.15
2019-05-05T01:36:09.353Z,5.42
2019-05-05T01:38:46.469Z,4.40
2019-05-05T01:41:22.129Z,3.90
2019-05-05T01:43:50.916Z,4.90
2019-05-05T01:46:19.697Z,9.70
2019-05-05T01:48:48.505Z,4.47
2019-05-05T01:51:17.226Z,4.97
2019-05-05T01:53:45.988Z,4.50
2019-05-05T01:56:15.456Z,5.00
2019-05-05T01:58:44.781Z,8.40
2019-05-05T02:01:15.295Z,5.57
2019-05-05T02:03:44.341Z,5.40
2019-05-05T02:06:14.213Z,6.60
2019-05-05T02:08:45.273Z,5.80
2019-05-05T02:11:15.476Z,5.63
2019-05-05T02:13:45.068Z,4.87
2019-05-05T02:16:15.053Z,5.60
2019-05-05T02:18:45.074Z,4.60
2019-05-05T02:21:14.306Z,6.27
2019-05-05T02:23:45.168Z,6.93
2019-05-05T02:26:15.241Z,6.63
2019-05-05T02:28:57.292Z,6.10
2019-05-05T02:31:39.360Z,4.47
2019-05-05T02:34:09.848Z,5.13
2019-05-05T02:36:38.965Z,5.43
2019-05-05T02:39:10.374Z,7.63
2019-05-05T02:41:40.484Z,6.50
2019-05-05T02:44:09.667Z,5.47
2019-05-05T02:46:50.181Z,5.17
2019-05-05T02:49:19.440Z,5.47
2019-05-05T02:51:48.986Z,10.10
2019-05-05T02:54:20.098Z,7.23
2019-05-05T02:56:50.797Z,4.23
2019-05-05T02:59:43.513Z,7.65
2019-05-05T03:02:24.269Z,4.50
2019-05-05T03:04:53.686Z,6.85
2019-05-05T03:07:25.809Z,4.13
2019-05-05T03:09:54.970Z,6.43
2019-05-05T03:12:26.177Z,5.25
2019-05-05T03:14:58.087Z,5.87
2019-05-05T03:17:27.258Z,6.70
2019-05-05T03:19:56.491Z,7.40
2019-05-05T03:22:26.702Z,10.63
2019-05-05T03:24:56.125Z,4.90
2019-05-05T03:27:25.418Z,8.70
2019-05-05T03:29:54.595Z,9.07
2019-05-05T03:32:25.510Z,7.60
2019-05-05T03:34:54.332Z,5.95
2019-05-05T03:37:25.041Z,8.60
2019-05-05T03:40:00.605Z,9.20
2019-05-05T03:42:45.926Z,14.97
2019-05-05T03:45:39.305Z,9.53
2019-05-05T03:48:08.445Z,10.60
2019-05-05T03:50:37.344Z,7.07
2019-05-05T03:53:06.185Z,7.97
2019-05-05T03:55:36.044Z,9.60
2019-05-05T03:58:05.160Z,5.30
2019-05-05T04:01:15.493Z,5.60
2019-05-05T04:03:44.510Z,5.50
2019-05-05T04:06:14.652Z,7.37
2019-05-05T04:08:44.420Z,10.67
2019-05-05T04:11:14.382Z,7.13
2019-05-05T04:13:43.840Z,8.28
2019-05-05T04:16:23.751Z,9.03
2019-05-05T04:18:57.235Z,4.80
2019-05-05T04:21:33.181Z,4.40
2019-05-05T04:23:56.405Z,9.20
2019-05-05T04:26:25.305Z,11.47
2019-05-05T04:28:54.217Z,4.80
2019-05-05T04:31:24.190Z,3.83
2019-05-05T04:33:53.803Z,5.30
2019-05-05T04:36:23.530Z,14.63
2019-05-05T04:38:54.588Z,8.00
2019-05-05T04:41:24.540Z,5.47
2019-05-05T04:43:54.699Z,6.05
2019-05-05T04:46:24.561Z,4.73
2019-05-05T04:49:07.255Z,8.13
2019-05-05T04:51:48.739Z,5.30
2019-05-05T04:54:24.403Z,7.37
2019-05-05T04:56:53.975Z,4.37
2019-05-05T04:59:23.561Z,9.60
2019-05-05T05:01:56.119Z,6.80
2019-05-05T05:04:36.720Z,4.87
2019-05-05T05:07:06.108Z,8.55
2019-05-05T05:09:34.896Z,6.70
2019-05-05T05:12:04.099Z,9.57
2019-05-05T05:14:33.745Z,5.75
2019-05-05T05:17:04.225Z,5.07
2019-05-05T05:19:33.542Z,6.50
2019-05-05T05:22:04.833Z,6.87
2019-05-05T05:24:34.344Z,7.00
2019-05-05T05:27:05.051Z,4.87
2019-05-05T05:29:34.613Z,6.75
2019-05-05T05:32:04.300Z,5.60
2019-05-05T05:34:34.457Z,6.57
2019-05-05T05:37:04.179Z,4.97
2019-05-05T05:39:44.051Z,6.03
2019-05-05T05:42:13.715Z,8.13
2019-05-05T05:45:14.593Z,6.03
2019-05-05T05:48:01.558Z,4.50
2019-05-05T05:50:34.075Z,8.35
2019-05-05T05:53:04.742Z,5.03
2019-05-05T05:55:34.317Z,5.27
2019-05-05T05:58:04.767Z,4.97
2019-05-05T06:00:34.500Z,6.27
2019-05-05T06:03:03.883Z,4.42
2019-05-05T06:05:34.344Z,9.05
2019-05-05T06:08:04.797Z,9.20
2019-05-05T06:10:34.038Z,7.83
2019-05-05T06:13:04.154Z,4.07
2019-05-05T06:15:33.900Z,4.37
2019-05-05T06:18:04.689Z,6.20
2019-05-05T06:20:34.410Z,7.83
2019-05-05T06:23:04.204Z,8.27
2019-05-05T06:25:34.297Z,5.47
2019-05-05T06:28:04.267Z,3.33
2019-05-05T06:30:33.768Z,10.80
2019-05-05T06:33:04.870Z,6.70
2019-05-05T06:35:34.154Z,5.17
2019-05-05T06:38:04.628Z,4.90
2019-05-05T06:40:53.598Z,11.12
2019-05-05T06:43:41.290Z,4.57
2019-05-05T06:46:11.559Z,10.13
2019-05-05T06:48:43.696Z,10.20
2019-05-05T06:51:14.033Z,4.80
2019-05-05T06:53:43.550Z,29.20
2019-05-05T06:56:14.574Z,17.07
2019-05-05T06:58:44.765Z,6.67
2019-05-05T07:01:14.419Z,5.75
2019-05-05T07:03:43.839Z,5.33
2019-05-05T07:06:14.623Z,4.37
2019-05-05T07:08:44.069Z,5.63
2019-05-05T07:11:14.581Z,6.70
2019-05-05T07:13:44.401Z,5.63
2019-05-05T07:16:14.911Z,6.17
2019-05-05T07:18:44.568Z,6.23
2019-05-05T07:21:14.227Z,5.97
2019-05-05T07:23:44.523Z,4.57
2019-05-05T07:26:14.344Z,7.87
2019-05-05T07:28:44.715Z,2.92
2019-05-05T07:31:14.388Z,4.53
2019-05-05T07:33:43.870Z,3.73
2019-05-05T07:36:39.041Z,4.10
2019-05-05T07:39:08.587Z,3.30
2019-05-05T07:41:40.342Z,4.13
2019-05-05T07:44:07.977Z,4.63
2019-05-05T07:46:36.754Z,2.20
2019-05-05T07:49:06.268Z,4.13
2019-05-05T07:51:35.015Z,4.23
2019-05-05T07:54:04.025Z,8.28
2019-05-05T07:56:34.430Z,9.98
2019-05-05T07:59:03.956Z,3.97
2019-05-05T08:01:33.827Z,4.00
2019-05-05T08:04:04.463Z,3.20
2019-05-05T08:06:33.909Z,5.13
2019-05-05T08:09:05.415Z,3.47
2019-05-05T08:11:34.416Z,3.70
2019-05-05T08:14:04.051Z,3.10
2019-05-05T08:16:46.951Z,3.67
2019-05-05T08:19:34.692Z,3.70
2019-05-05T08:22:04.153Z,3.00
2019-05-05T08:24:52.005Z,3.80
2019-05-05T08:27:48.971Z,6.03
2019-05-05T08:30:38.962Z,3.17
2019-05-05T08:33:07.899Z,4.85
2019-05-05T08:35:38.728Z,3.83
2019-05-05T08:38:07.568Z,5.80
2019-05-05T08:40:36.602Z,4.73
2019-05-05T08:43:05.325Z,3.73
2019-05-05T08:45:34.992Z,5.83
2019-05-05T08:48:04.828Z,4.80
2019-05-05T08:50:34.978Z,3.40
2019-05-05T08:53:04.880Z,2.90
2019-05-05T08:55:34.735Z,2.20
2019-05-05T08:58:04.566Z,4.77
2019-05-05T09:00:33.947Z,4.90
2019-05-05T09:03:03.749Z,2.97
2019-05-05T09:05:34.386Z,6.67
2019-05-05T09:08:04.582Z,6.33
2019-05-05T09:10:34.324Z,3.77
2019-05-05T09:13:03.881Z,3.57
2019-05-05T09:15:33.819Z,4.10
2019-05-05T09:18:04.791Z,4.07
2019-05-05T09:20:34.758Z,6.90
2019-05-05T09:23:04.247Z,6.37
2019-05-05T09:25:44.673Z,4.22
2019-05-05T09:28:36.649Z,3.90
2019-05-05T09:31:05.807Z,6.22
2019-05-05T09:33:34.543Z,6.20
2019-05-05T09:36:04.692Z,4.30
2019-05-05T09:38:34.882Z,8.83
2019-05-05T09:41:03.925Z,4.13
2019-05-05T09:43:34.554Z,4.33
2019-05-05T09:46:03.946Z,6.08
2019-05-05T09:48:33.582Z,4.78
2019-05-05T09:51:04.331Z,3.23
2019-05-05T09:53:34.521Z,5.47
2019-05-05T09:56:04.181Z,7.47
2019-05-05T09:58:34.763Z,7.45
2019-05-05T10:01:04.011Z,8.53
2019-05-05T10:03:34.074Z,6.43
2019-05-05T10:06:04.908Z,4.40
2019-05-05T10:08:34.693Z,5.85
2019-05-05T10:11:04.123Z,4.37
2019-05-05T10:13:33.761Z,10.13
2019-05-05T10:16:03.959Z,6.13
2019-05-05T10:18:35.505Z,4.07
2019-05-05T10:21:04.606Z,8.30
2019-05-05T10:23:35.503Z,5.67
2019-05-05T10:26:07.428Z,7.47
2019-05-05T10:28:36.238Z,4.63
2019-05-05T10:31:05.285Z,6.23
2019-05-05T10:33:36.488Z,6.30
2019-05-05T10:36:05.382Z,3.80
2019-05-05T10:38:35.772Z,4.70
2019-05-05T10:41:05.054Z,6.97
2019-05-05T10:43:34.324Z,4.60
2019-05-05T10:46:03.900Z,4.47
2019-05-05T10:48:34.049Z,4.85
2019-05-05T10:51:04.217Z,4.73
2019-05-05T10:53:33.224Z,3.70
2019-05-05T10:56:04.265Z,2.33
2019-05-05T10:58:33.602Z,3.67
2019-05-05T11:01:04.285Z,4.63
2019-05-05T11:03:34.320Z,5.60
2019-05-05T11:06:04.568Z,4.40
2019-05-05T11:08:34.958Z,3.67
2019-05-05T11:11:04.332Z,5.03
2019-05-05T11:13:34.469Z,4.42
2019-05-05T11:16:03.974Z,3.42
2019-05-05T11:18:34.492Z,4.37
2019-05-05T11:21:04.119Z,3.43
2019-05-05T11:23:34.599Z,2.00
2019-05-05T11:26:04.080Z,2.50
2019-05-05T11:28:33.925Z,4.10
2019-05-05T11:31:04.478Z,4.70
2019-05-05T11:33:56.785Z,3.17
2019-05-05T11:36:31.862Z,5.40
2019-05-05T11:39:00.663Z,3.93
2019-05-05T11:41:29.353Z,3.97
2019-05-05T11:43:58.079Z,4.65
2019-05-05T11:46:26.804Z,4.58
2019-05-05T11:48:55.517Z,2.67
2019-05-05T11:51:24.997Z,5.40
2019-05-05T11:53:54.159Z,2.55
2019-05-05T11:56:23.420Z,3.33
2019-05-05T11:58:54.520Z,2.70
2019-05-05T12:01:24.282Z,2.77
2019-05-05T12:03:53.663Z,3.83
2019-05-05T12:06:24.654Z,2.57
2019-05-05T12:08:53.709Z,4.47
2019-05-05T12:11:24.004Z,2.87
2019-05-05T12:13:54.586Z,2.43
2019-05-05T12:16:31.634Z,3.93
2019-05-05T12:19:05.936Z,4.40
2019-05-05T12:21:34.644Z,4.95
2019-05-05T12:24:08.600Z,5.50
2019-05-05T12:26:46.218Z,3.17
2019-05-05T12:29:39.627Z,4.23
2019-05-05T12:32:12.970Z,4.00
2019-05-05T12:34:41.596Z,4.73
2019-05-05T12:37:10.391Z,4.40
2019-05-05T12:39:39.461Z,4.57
2019-05-05T12:42:08.306Z,3.73
2019-05-05T12:44:41.648Z,3.77
2019-05-05T12:47:30.573Z,4.33
2019-05-05T12:49:59.365Z,4.08
2019-05-05T12:52:28.226Z,4.20
2019-05-05T12:54:57.156Z,3.13
2019-05-05T12:57:25.854Z,4.55
2019-05-05T12:59:54.733Z,3.23
2019-05-05T13:02:23.953Z,4.80
2019-05-05T13:04:53.589Z,3.80
2019-05-05T13:07:24.309Z,3.47
2019-05-05T13:09:54.526Z,2.77
2019-05-05T13:12:24.029Z,3.60
2019-05-05T13:14:54.465Z,2.25
2019-05-05T13:17:24.731Z,2.67
2019-05-05T13:20:13.931Z,3.60
2019-05-05T13:23:08.144Z,2.80
2019-05-05T13:25:56.041Z,2.53
2019-05-05T13:28:18.354Z,3.97
2019-05-05T13:30:47.118Z,5.83
2019-05-05T13:33:15.915Z,4.53
2019-05-05T13:35:44.738Z,2.30
2019-05-05T13:38:14.579Z,3.33
2019-05-05T13:40:44.085Z,1.93
2019-05-05T13:43:14.445Z,3.37
2019-05-05T13:45:50.170Z,2.20
2019-05-05T13:48:18.944Z,4.30
2019-05-05T13:50:51.473Z,2.45
2019-05-05T13:53:20.376Z,2.10
2019-05-05T13:55:49.557Z,4.60
2019-05-05T13:58:18.349Z,3.00
2019-05-05T14:00:47.239Z,3.60
2019-05-05T14:03:16.020Z,2.97
2019-05-05T14:05:45.122Z,3.93
2019-05-05T14:08:14.808Z,2.40
2019-05-05T14:10:43.732Z,2.63
2019-05-05T14:13:12.453Z,4.62
2019-05-05T14:15:41.238Z,3.70
2019-05-05T14:18:09.999Z,3.67
2019-05-05T14:20:39.092Z,3.57
2019-05-05T14:23:07.810Z,4.37
2019-05-05T14:25:36.525Z,3.03
2019-05-05T14:28:05.581Z,4.13
2019-05-05T14:30:43.493Z,4.58
2019-05-05T14:33:16.692Z,3.97
2019-05-05T14:35:53.981Z,1.65
2019-05-05T14:38:34.734Z,2.30
2019-05-05T14:41:04.190Z,2.97
2019-05-05T14:43:34.511Z,3.47
2019-05-05T14:46:03.919Z,5.13
2019-05-05T14:48:34.029Z,3.33
2019-05-05T14:51:03.958Z,3.07
2019-05-05T14:53:34.843Z,2.23
2019-05-05T14:56:04.604Z,3.27
2019-05-05T14:58:33.961Z,1.65
2019-05-05T15:01:04.478Z,4.33
2019-05-05T15:03:33.696Z,3.67
2019-05-05T15:06:18.000Z,2.30
2019-05-05T15:08:54.292Z,2.20
2019-05-05T15:11:33.856Z,3.00
2019-05-05T15:14:04.947Z,3.93
2019-05-05T15:16:34.707Z,2.63
2019-05-05T15:19:04.054Z,3.13
2019-05-05T15:21:33.984Z,4.63
2019-05-05T15:24:02.944Z,5.50
2019-05-05T15:26:34.349Z,4.40
2019-05-05T15:29:02.577Z,2.60
2019-05-05T15:31:31.549Z,4.47
2019-05-05T15:34:00.468Z,5.85
2019-05-05T15:36:29.737Z,3.93
2019-05-05T15:38:59.387Z,5.45
2019-05-05T15:41:28.089Z,3.77
2019-05-05T15:43:57.296Z,2.73
2019-05-05T15:46:26.033Z,3.77
2019-05-05T15:48:54.791Z,3.17
2019-05-05T15:51:23.741Z,2.67
2019-05-05T15:53:54.238Z,2.87
2019-05-05T15:56:24.450Z,3.40
2019-05-05T15:58:53.309Z,2.90
2019-05-05T16:01:23.701Z,3.30
2019-05-05T16:03:54.204Z,3.97
2019-05-05T16:06:23.739Z,3.22
2019-05-05T16:08:56.324Z,4.87
2019-05-05T16:11:23.445Z,3.90
2019-05-05T16:13:54.383Z,4.37
2019-05-05T16:16:29.814Z,3.23
2019-05-05T16:19:13.983Z,2.87
2019-05-05T16:21:54.877Z,3.47
2019-05-05T16:24:26.145Z,3.27
2019-05-05T16:26:55.609Z,3.87
2019-05-05T16:29:25.380Z,3.80
2019-05-05T16:31:54.466Z,4.70
2019-05-05T16:34:23.553Z,2.50
2019-05-05T16:36:54.441Z,4.67
2019-05-05T16:39:25.256Z,3.40
2019-05-05T16:41:53.780Z,4.60
2019-05-05T16:44:23.428Z,4.67
2019-05-05T16:46:53.981Z,2.87
2019-05-05T16:49:22.920Z,3.83
2019-05-05T16:52:00.770Z,3.03
2019-05-05T16:54:34.992Z,3.97
2019-05-05T16:57:05.733Z,4.53
2019-05-05T16:59:34.308Z,3.90
2019-05-05T17:02:04.735Z,4.25
2019-05-05T17:04:35.507Z,4.62
2019-05-05T17:07:04.158Z,6.40
2019-05-05T17:09:34.454Z,4.90
2019-05-05T17:12:09.946Z,5.63
2019-05-05T17:15:00.604Z,3.43
2019-05-05T17:17:35.588Z,3.80
2019-05-05T17:20:10.780Z,3.67
2019-05-05T17:22:44.720Z,5.95
2019-05-05T17:25:13.993Z,3.93
2019-05-05T17:27:48.558Z,3.43
2019-05-05T17:30:15.118Z,5.10
2019-05-05T17:32:44.170Z,4.60
2019-05-05T17:35:14.356Z,4.57
2019-05-05T17:37:44.264Z,2.57
2019-05-05T17:40:21.327Z,4.87
2019-05-05T17:43:23.976Z,5.90
2019-05-05T17:45:59.540Z,6.25
2019-05-05T17:48:33.233Z,5.13
2019-05-05T17:51:17.768Z,4.33
2019-05-05T17:54:11.445Z,4.53
2019-05-05T17:56:40.474Z,7.07
2019-05-05T17:59:09.248Z,7.30
2019-05-05T18:01:38.338Z,6.93
2019-05-05T18:04:07.062Z,8.13
2019-05-05T18:06:40.834Z,13.77
2019-05-05T18:09:23.830Z,9.28
2019-05-05T18:12:07.157Z,9.73
2019-05-05T18:14:36.652Z,15.50
2019-05-05T18:17:05.410Z,13.62
2019-05-05T18:19:34.443Z,11.12
2019-05-05T18:22:03.148Z,10.73
2019-05-05T18:24:33.678Z,8.80
2019-05-05T18:27:04.640Z,9.57
2019-05-05T18:29:33.992Z,12.30
2019-05-05T18:32:04.331Z,11.00
2019-05-05T18:34:33.546Z,7.20
2019-05-05T18:37:03.745Z,7.50
2019-05-05T18:39:34.258Z,12.28
2019-05-05T18:42:13.837Z,8.20
2019-05-05T18:44:44.867Z,11.22
2019-05-05T18:47:18.191Z,9.67
2019-05-05T18:49:46.442Z,12.27
2019-05-05T18:52:15.140Z,8.80
2019-05-05T18:54:43.954Z,10.00
2019-05-05T18:57:13.167Z,9.80
2019-05-05T18:59:41.950Z,9.70
2019-05-05T19:02:45.183Z,9.03
2019-05-05T19:05:44.073Z,13.73
2019-05-05T19:08:17.404Z,11.70
2019-05-05T19:10:46.509Z,11.50
2019-05-05T19:13:15.408Z,16.48
2019-05-05T19:15:45.263Z,11.10
2019-05-05T19:18:14.175Z,17.10
2019-05-05T19:20:49.682Z,12.83
2019-05-05T19:23:19.289Z,10.33
2019-05-05T19:25:47.999Z,12.13
2019-05-05T19:28:17.088Z,12.33
2019-05-05T19:30:45.905Z,11.77
2019-05-05T19:33:15.543Z,15.60
2019-05-05T19:35:47.296Z,16.87
2019-05-05T19:38:15.818Z,11.78
2019-05-05T19:40:45.358Z,11.60
2019-05-05T19:43:14.601Z,14.17
2019-05-05T19:45:44.769Z,12.73
2019-05-05T19:48:14.966Z,10.33
2019-05-05T19:50:54.244Z,16.45
2019-05-05T19:53:26.660Z,15.53
2019-05-05T19:55:56.502Z,13.17
2019-05-05T19:58:25.719Z,13.87
2019-05-05T20:00:57.390Z,9.73
2019-05-05T20:03:26.601Z,10.20
2019-05-05T20:05:55.693Z,9.60
2019-05-05T20:08:38.981Z,13.13
2019-05-05T20:10:55.397Z,11.20
2019-05-05T20:13:24.176Z,8.47
2019-05-05T20:16:04.507Z,11.57
2019-05-05T20:18:34.279Z,10.37
2019-05-05T20:21:06.840Z,9.13
2019-05-05T20:23:34.153Z,11.10
2019-05-05T20:26:04.017Z,10.37
2019-05-05T20:28:33.888Z,9.03
2019-05-05T20:31:03.640Z,11.17
2019-05-05T20:33:44.704Z,15.83
2019-05-05T20:36:16.905Z,8.73
2019-05-05T20:38:48.850Z,9.73
2019-05-05T20:41:19.500Z,15.32
2019-05-05T20:43:48.270Z,9.85
2019-05-05T20:46:16.979Z,8.60
2019-05-05T20:48:45.747Z,11.43
2019-05-05T20:51:14.478Z,11.97
2019-05-05T20:53:44.786Z,14.27
2019-05-05T20:56:14.921Z,15.10
2019-05-05T20:58:44.051Z,13.13
2019-05-05T21:01:14.005Z,9.00
2019-05-05T21:03:42.860Z,13.07
2019-05-05T21:06:13.662Z,13.33
2019-05-05T21:08:44.061Z,14.30
2019-05-05T21:11:14.135Z,15.17
2019-05-05T21:13:45.079Z,10.67
2019-05-05T21:16:14.333Z,15.70
2019-05-05T21:18:43.554Z,12.30
2019-05-05T21:21:17.426Z,12.43
2019-05-05T21:23:56.312Z,11.87
2019-05-05T21:26:44.130Z,11.23
2019-05-05T21:29:14.056Z,11.80
2019-05-05T21:31:43.798Z,11.27
2019-05-05T21:34:13.965Z,13.73
2019-05-05T21:36:44.800Z,11.70
2019-05-05T21:39:14.894Z,15.50
2019-05-05T21:41:44.214Z,13.55
2019-05-05T21:44:14.671Z,16.87
2019-05-05T21:46:43.851Z,14.33
2019-05-05T21:49:13.613Z,13.23
2019-05-05T21:52:01.718Z,13.20
2019-05-05T21:54:39.235Z,19.90
2019-05-05T21:57:34.576Z,19.20
2019-05-05T22:00:05.444Z,13.90
2019-05-05T22:02:34.596Z,13.23
2019-05-05T22:05:04.146Z,14.27
2019-05-05T22:07:33.655Z,14.10
2019-05-05T22:10:04.487Z,16.50
2019-05-05T22:12:36.229Z,12.83
2019-05-05T22:15:04.615Z,10.30
2019-05-05T22:17:36.179Z,17.37
2019-05-05T22:20:17.613Z,12.33
2019-05-05T22:22:46.930Z,11.80
2019-05-05T22:25:15.670Z,15.60
2019-05-05T22:27:44.417Z,14.23
2019-05-05T22:30:14.164Z,12.33
2019-05-05T22:32:44.132Z,15.53
2019-05-05T22:35:13.996Z,14.33
2019-05-05T22:37:44.038Z,15.53
2019-05-05T22:40:20.742Z,13.23
2019-05-05T22:42:49.702Z,18.82
2019-05-05T22:45:18.609Z,12.78
2019-05-05T22:47:47.604Z,12.13
2019-05-05T22:50:16.689Z,10.80
2019-05-05T22:52:45.395Z,15.03
2019-05-05T22:55:14.300Z,11.20
2019-05-05T22:57:45.094Z,19.40
2019-05-05T23:00:26.080Z,14.75
2019-05-05T23:02:51.653Z,12.20
2019-05-05T23:05:27.274Z,17.27
2019-05-05T23:07:56.258Z,21.97
2019-05-05T23:10:25.326Z,16.10
2019-05-05T23:12:54.464Z,14.13
2019-05-05T23:15:25.467Z,15.80
2019-05-05T23:18:16.298Z,16.33
2019-05-05T23:21:10.242Z,19.83
2019-05-05T23:23:48.160Z,15.07
2019-05-05T23:26:18.061Z,13.00
2019-05-05T23:28:46.766Z,13.70
2019-05-05T23:31:16.158Z,20.63
2019-05-05T23:33:45.132Z,10.50
2019-05-05T23:36:14.791Z,12.90
2019-05-05T23:38:44.906Z,13.13
2019-05-05T23:41:14.594Z,14.00
2019-05-05T23:43:45.086Z,11.05
2019-05-05T23:46:14.459Z,15.15
2019-05-05T23:48:44.149Z,15.27
2019-05-05T23:51:13.953Z,14.20
2019-05-05T23:53:44.486Z,16.43
2019-05-05T23:56:13.660Z,12.33
2019-05-05T23:59:19.168Z,12.98
